createdAt,value
2022-10-05T00:00:50.479Z,7.1
2022-10-05T00:02:50.289Z,7.0
2022-10-05T00:04:51.152Z,7.0
2022-10-05T00:06:50.652Z,7.0
2022-10-05T00:08:50.506Z,7.0
2022-10-05T00:10:50.702Z,7.0
2022-10-05T00:12:50.763Z,7.0
2022-10-05T00:14:50.764Z,7.1
2022-10-05T00:16:52.203Z,7.1
2022-10-05T00:18:50.410Z,7.1
2022-10-05T00:20:50.236Z,7.1
2022-10-05T00:22:50.422Z,7.1
2022-10-05T00:24:50.455Z,7.1
2022-10-05T00:26:58.693Z,7.1
2022-10-05T00:28:50.751Z,7.1
2022-10-05T00:30:50.872Z,7.1
2022-10-05T00:32:51.721Z,7.1
2022-10-05T00:34:50.340Z,7.1
2022-10-05T00:36:50.721Z,7.1
2022-10-05T00:38:50.492Z,7.1
2022-10-05T00:40:50.503Z,7.1
2022-10-05T00:42:50.388Z,7.1
2022-10-05T00:44:50.507Z,7.1
2022-10-05T00:46:49.952Z,7.1
2022-10-05T00:48:50.847Z,7.0
2022-10-05T00:50:50.845Z,7.0
2022-10-05T00:52:50.732Z,7.0
2022-10-05T00:54:50.906Z,7.0
2022-10-05T00:56:50.304Z,7.0
2022-10-05T00:58:50.357Z,7.0
2022-10-05T01:00:50.661Z,7.0
2022-10-05T01:02:51.269Z,7.0
2022-10-05T01:04:50.856Z,7.0
2022-10-05T01:06:50.116Z,7.0
2022-10-05T01:08:50.196Z,7.0
2022-10-05T01:10:50.090Z,7.0
2022-10-05T01:12:50.176Z,7.0
2022-10-05T01:14:50.134Z,7.0
2022-10-05T01:16:51.902Z,6.9
2022-10-05T01:18:50.919Z,6.9
2022-10-05T01:20:49.983Z,6.9
2022-10-05T01:22:49.922Z,6.9
2022-10-05T01:24:50.860Z,6.8
2022-10-05T01:26:50.319Z,6.8
2022-10-05T01:28:50.043Z,6.8
2022-10-05T01:30:50.028Z,6.8
2022-10-05T01:32:50.017Z,6.8
2022-10-05T01:34:50.489Z,6.8
2022-10-05T01:36:50.284Z,6.8
2022-10-05T01:38:50.437Z,6.7
2022-10-05T01:40:50.377Z,6.7
2022-10-05T01:42:50.280Z,6.7
2022-10-05T01:44:50.452Z,6.7
2022-10-05T01:46:50.734Z,6.7
2022-10-05T01:48:50.979Z,6.7
2022-10-05T01:50:49.995Z,6.7
2022-10-05T01:52:50.884Z,6.6
2022-10-05T01:54:49.984Z,6.6
2022-10-05T01:56:50.266Z,6.6
2022-10-05T01:58:50.069Z,6.6
2022-10-05T02:00:50.571Z,6.6
2022-10-05T02:02:50.666Z,6.6
2022-10-05T02:05:03.599Z,6.5
2022-10-05T02:06:50.293Z,6.5
2022-10-05T02:08:50.296Z,6.5
2022-10-05T02:10:50.333Z,6.5
2022-10-05T02:12:50.337Z,6.5
2022-10-05T02:14:50.449Z,6.4
2022-10-05T02:16:50.672Z,6.4
2022-10-05T02:18:50.692Z,6.4
2022-10-05T02:20:50.761Z,6.4
2022-10-05T02:22:50.893Z,6.4
2022-10-05T02:24:50.794Z,6.3
2022-10-05T02:26:50.138Z,6.3
2022-10-05T02:28:50.111Z,6.3
2022-10-05T02:30:50.282Z,6.3
2022-10-05T02:32:50.297Z,6.3
2022-10-05T02:34:50.683Z,6.2
2022-10-05T02:36:50.202Z,6.2
2022-10-05T02:38:50.355Z,6.2
2022-10-05T02:40:50.400Z,6.2
2022-10-05T02:42:50.261Z,6.2
2022-10-05T02:44:50.445Z,6.1
2022-10-05T02:46:58.599Z,6.1
2022-10-05T02:48:49.999Z,6.1
2022-10-05T02:50:49.948Z,6.1
2022-10-05T02:52:50.832Z,6.1
2022-10-05T02:54:50.738Z,6.1
2022-10-05T02:56:50.443Z,6.1
2022-10-05T02:58:50.607Z,6.1
2022-10-05T03:00:50.939Z,6.1
2022-10-05T03:02:50.207Z,6.1
2022-10-05T03:04:50.744Z,6.1
2022-10-05T03:06:50.202Z,6.1
2022-10-05T03:08:50.123Z,6.0
2022-10-05T03:10:50.234Z,6.0
2022-10-05T03:12:50.157Z,6.0
2022-10-05T03:14:50.323Z,6.0
2022-10-05T03:16:50.034Z,6.0
2022-10-05T03:18:50.753Z,6.0
2022-10-05T03:20:50.537Z,5.9
2022-10-05T03:22:50.384Z,5.9
2022-10-05T03:24:50.528Z,5.9
2022-10-05T03:26:50.780Z,5.9
2022-10-05T03:28:50.923Z,5.9
2022-10-05T03:30:50.998Z,5.9
2022-10-05T03:32:50.159Z,5.8
2022-10-05T03:34:50.113Z,5.8
2022-10-05T03:36:50.538Z,5.8
2022-10-05T03:38:50.589Z,5.8
2022-10-05T03:40:50.533Z,5.8
2022-10-05T03:42:50.661Z,5.8
2022-10-05T03:44:50.422Z,5.8
2022-10-05T03:46:51.110Z,5.8
2022-10-05T03:48:50.072Z,5.8
2022-10-05T03:50:50.192Z,5.8
2022-10-05T03:52:50.401Z,5.8
2022-10-05T03:54:50.527Z,5.8
2022-10-05T03:56:50.467Z,5.8
2022-10-05T03:58:50.399Z,5.8
2022-10-05T04:00:50.674Z,5.8
2022-10-05T04:02:51.084Z,5.8
2022-10-05T04:04:50.707Z,5.8
2022-10-05T04:06:50.912Z,5.8
2022-10-05T04:08:50.872Z,5.8
2022-10-05T04:10:50.892Z,5.7
2022-10-05T04:12:50.892Z,5.7
2022-10-05T04:14:50.835Z,5.7
2022-10-05T04:16:50.352Z,5.7
2022-10-05T04:18:50.637Z,5.7
2022-10-05T04:20:50.442Z,5.7
2022-10-05T04:22:50.560Z,5.7
2022-10-05T04:24:50.542Z,5.7
2022-10-05T04:26:50.787Z,5.7
2022-10-05T04:28:50.642Z,5.7
2022-10-05T04:30:50.762Z,5.7
2022-10-05T04:32:50.735Z,5.7
2022-10-05T04:34:50.284Z,5.7
2022-10-05T04:36:50.017Z,5.7
2022-10-05T04:38:50.822Z,5.7
2022-10-05T04:40:50.863Z,5.7
2022-10-05T04:42:49.943Z,5.8
2022-10-05T04:44:50.276Z,5.7
2022-10-05T04:46:51.938Z,5.8
2022-10-05T04:52:50.163Z,5.8
2022-10-05T04:54:50.070Z,5.7
2022-10-05T04:56:50.610Z,5.8
2022-10-05T04:58:50.657Z,5.7
2022-10-05T05:00:50.759Z,5.7
2022-10-05T05:02:50.107Z,5.7
2022-10-05T05:04:52.565Z,5.7
2022-10-05T05:06:50.886Z,5.7
2022-10-05T05:08:50.915Z,5.6
2022-10-05T05:10:50.616Z,5.6
2022-10-05T05:12:50.722Z,5.6
2022-10-05T05:14:50.720Z,5.6
2022-10-05T05:16:50.702Z,5.6
2022-10-05T05:18:50.655Z,5.6
2022-10-05T05:20:49.910Z,5.6
2022-10-05T05:22:50.737Z,5.6
2022-10-05T05:24:50.801Z,5.6
2022-10-05T05:26:51.746Z,5.6
2022-10-05T05:28:50.261Z,5.6
2022-10-05T05:30:50.290Z,5.6
2022-10-05T05:32:50.265Z,5.5
2022-10-05T05:34:50.803Z,5.5
2022-10-05T05:36:50.407Z,5.5
2022-10-05T05:38:50.465Z,5.5
2022-10-05T05:40:50.470Z,5.4
2022-10-05T05:42:50.444Z,5.4
2022-10-05T05:44:50.376Z,5.4
2022-10-05T05:47:05.738Z,5.4
2022-10-05T05:48:50.228Z,5.5
2022-10-05T05:50:50.099Z,5.5
2022-10-05T05:52:50.198Z,5.5
2022-10-05T05:54:50.219Z,5.5
2022-10-05T05:56:50.540Z,5.5
2022-10-05T05:58:50.320Z,5.5
2022-10-05T06:00:50.385Z,5.5
2022-10-05T06:02:50.690Z,5.5
2022-10-05T06:04:50.659Z,5.5
2022-10-05T06:06:50.742Z,5.5
2022-10-05T06:08:50.761Z,5.5
2022-10-05T06:10:50.864Z,5.5
2022-10-05T06:12:50.005Z,5.6
2022-10-05T06:14:50.257Z,5.6
2022-10-05T06:16:52.208Z,5.6
2022-10-05T06:18:50.680Z,5.6
2022-10-05T06:20:50.629Z,5.6
2022-10-05T06:22:50.692Z,5.6
2022-10-05T06:24:50.560Z,5.7
2022-10-05T06:26:50.844Z,5.7
2022-10-05T06:28:50.837Z,5.7
2022-10-05T06:30:49.977Z,5.8
2022-10-05T06:32:50.114Z,5.9
2022-10-05T06:34:50.698Z,6.0
2022-10-05T06:36:50.699Z,6.0
2022-10-05T06:38:50.661Z,6.1
2022-10-05T06:40:50.623Z,6.2
2022-10-05T06:42:50.765Z,6.3
2022-10-05T06:44:50.781Z,6.3
2022-10-05T06:46:50.416Z,6.4
2022-10-05T06:50:50.729Z,6.6
2022-10-05T06:52:50.588Z,6.7
2022-10-05T06:54:50.660Z,6.7
2022-10-05T06:56:50.643Z,6.8
2022-10-05T06:58:50.726Z,6.9
2022-10-05T07:00:50.947Z,7.0
2022-10-05T07:02:50.866Z,7.0
2022-10-05T07:04:50.257Z,7.1
2022-10-05T07:06:50.630Z,7.2
2022-10-05T07:08:50.584Z,7.3
2022-10-05T07:10:50.598Z,7.4
2022-10-05T07:12:50.555Z,7.5
2022-10-05T07:14:50.880Z,7.5
2022-10-05T07:16:50.538Z,7.6
2022-10-05T07:18:50.668Z,7.8
2022-10-05T07:20:50.732Z,7.9
2022-10-05T07:22:50.909Z,7.9
2022-10-05T07:24:50.710Z,8.0
2022-10-05T07:26:51.159Z,8.1
2022-10-05T07:28:50.349Z,8.3
2022-10-05T07:30:50.757Z,8.3
2022-10-05T07:32:50.173Z,8.4
2022-10-05T07:34:50.670Z,8.6
2022-10-05T07:36:56.125Z,8.7
2022-10-05T07:38:50.542Z,8.8
2022-10-05T07:40:50.966Z,8.8
2022-10-05T07:42:52.754Z,8.9
2022-10-05T07:44:50.641Z,9.1
2022-10-05T07:46:51.472Z,9.2
2022-10-05T07:48:50.444Z,9.3
2022-10-05T07:50:50.358Z,9.3
2022-10-05T07:52:50.454Z,9.5
2022-10-05T07:54:50.509Z,9.6
2022-10-05T07:56:51.263Z,9.7
2022-10-05T07:58:50.251Z,9.8
2022-10-05T08:00:50.388Z,9.8
2022-10-05T08:02:50.383Z,9.9
2022-10-05T08:04:50.903Z,10.1
2022-10-05T08:06:51.443Z,10.1
2022-10-05T08:08:50.549Z,10.2
2022-10-05T08:10:50.514Z,10.2
2022-10-05T08:12:50.300Z,10.4
2022-10-05T08:14:50.499Z,10.5
2022-10-05T08:16:50.840Z,10.6
2022-10-05T08:18:50.846Z,10.6
2022-10-05T08:20:50.694Z,10.6
2022-10-05T08:22:49.985Z,10.8
2022-10-05T08:24:50.807Z,10.9
2022-10-05T08:26:50.222Z,11.0
2022-10-05T08:28:50.267Z,11.0
2022-10-05T08:30:50.431Z,11.1
2022-10-05T08:32:50.782Z,11.2
2022-10-05T08:34:50.240Z,11.3
2022-10-05T08:36:54.551Z,11.4
2022-10-05T08:38:50.746Z,11.4
2022-10-05T08:40:50.734Z,11.5
2022-10-05T08:42:50.610Z,11.6
2022-10-05T08:44:50.511Z,11.8
2022-10-05T08:46:50.335Z,11.8
2022-10-05T08:48:50.444Z,11.8
2022-10-05T08:50:50.420Z,12.0
2022-10-05T08:52:50.448Z,12.1
2022-10-05T08:54:50.357Z,12.2
2022-10-05T08:56:50.669Z,12.3
2022-10-05T08:58:50.495Z,12.3
2022-10-05T09:00:50.651Z,12.5
2022-10-05T09:02:50.858Z,12.6
2022-10-05T09:04:50.529Z,12.7
2022-10-05T09:06:49.998Z,12.7
2022-10-05T09:08:50.808Z,12.8
2022-10-05T09:10:50.910Z,12.9
2022-10-05T09:12:50.691Z,13.0
2022-10-05T09:15:25.623Z,13.0
2022-10-05T09:16:50.770Z,13.2
2022-10-05T09:18:50.861Z,13.3
2022-10-05T09:20:50.810Z,13.4
2022-10-05T09:22:50.777Z,13.4
2022-10-05T09:24:50.684Z,13.5
2022-10-05T09:26:50.199Z,13.5
2022-10-05T09:28:50.473Z,13.6
2022-10-05T09:30:50.658Z,13.7
2022-10-05T09:32:50.891Z,13.8
2022-10-05T09:34:50.565Z,13.8
2022-10-05T09:36:50.128Z,13.8
2022-10-05T09:38:50.253Z,14.0
2022-10-05T09:40:50.100Z,14.1
2022-10-05T09:42:50.262Z,14.1
2022-10-05T09:44:50.248Z,14.1
2022-10-05T09:46:50.726Z,14.2
2022-10-05T09:48:50.624Z,14.2
2022-10-05T09:50:50.745Z,14.4
2022-10-05T09:52:50.166Z,14.5
2022-10-05T09:54:50.039Z,14.5
2022-10-05T09:56:50.785Z,14.6
2022-10-05T09:58:50.638Z,14.7
2022-10-05T10:01:32.995Z,14.8
2022-10-05T10:02:51.414Z,15.0
2022-10-05T10:04:50.016Z,15.0
2022-10-05T10:06:50.330Z,15.0
2022-10-05T10:08:50.301Z,15.1
2022-10-05T10:10:50.363Z,15.2
2022-10-05T10:12:50.240Z,15.2
2022-10-05T10:14:50.017Z,15.3
2022-10-05T10:16:50.921Z,15.4
2022-10-05T10:18:49.977Z,15.5
2022-10-05T10:20:49.935Z,15.6
2022-10-05T10:22:50.140Z,15.6
2022-10-05T10:24:50.210Z,15.8
2022-10-05T10:26:50.717Z,15.8
2022-10-05T10:28:50.721Z,16.0
2022-10-05T10:30:50.930Z,16.1
2022-10-05T10:32:50.048Z,16.1
2022-10-05T10:34:50.379Z,16.2
2022-10-05T10:36:51.993Z,16.4
2022-10-05T10:38:50.040Z,16.4
2022-10-05T10:40:50.201Z,16.4
2022-10-05T10:42:50.226Z,16.5
2022-10-05T10:44:50.253Z,16.6
2022-10-05T10:46:52.967Z,16.7
2022-10-05T10:48:50.804Z,16.8
2022-10-05T10:50:50.872Z,16.8
2022-10-05T10:52:49.978Z,16.9
2022-10-05T10:54:49.973Z,16.9
2022-10-05T10:56:51.941Z,17.0
2022-10-05T10:58:50.392Z,17.0
2022-10-05T11:00:50.435Z,17.1
2022-10-05T11:02:50.626Z,17.3
2022-10-05T11:04:50.391Z,17.3
2022-10-05T11:06:50.672Z,17.4
2022-10-05T11:08:50.668Z,17.5
2022-10-05T11:10:50.882Z,17.5
2022-10-05T11:12:49.977Z,17.5
2022-10-05T11:14:50.610Z,17.6
2022-10-05T11:16:52.250Z,17.7
2022-10-05T11:18:50.296Z,17.8
2022-10-05T11:20:50.078Z,17.8
2022-10-05T11:22:50.055Z,17.8
2022-10-05T11:24:50.062Z,17.8
2022-10-05T11:26:52.368Z,17.9
2022-10-05T11:28:50.343Z,17.9
2022-10-05T11:30:51.936Z,18.0
2022-10-05T11:32:50.586Z,18.0
2022-10-05T11:34:50.213Z,18.0
2022-10-05T11:36:50.482Z,18.0
2022-10-05T11:38:50.391Z,18.1
2022-10-05T11:40:50.613Z,18.2
2022-10-05T11:42:50.692Z,18.2
2022-10-05T11:44:50.595Z,18.3
2022-10-05T11:46:50.326Z,18.3
2022-10-05T11:48:50.430Z,18.3
2022-10-05T11:50:50.570Z,18.4
2022-10-05T11:52:50.331Z,18.5
2022-10-05T11:55:12.463Z,18.5
2022-10-05T11:56:55.568Z,18.5
2022-10-05T11:58:50.690Z,18.6
2022-10-05T12:00:50.546Z,18.6
2022-10-05T12:02:50.879Z,18.6
2022-10-05T12:04:50.513Z,18.6
2022-10-05T12:06:52.462Z,18.7
2022-10-05T12:08:50.682Z,18.7
2022-10-05T12:10:50.514Z,18.8
2022-10-05T12:12:50.614Z,18.8
2022-10-05T12:14:50.424Z,18.8
2022-10-05T12:16:50.315Z,18.8
2022-10-05T12:18:50.256Z,18.8
2022-10-05T12:20:50.586Z,18.9
2022-10-05T12:22:50.480Z,19.0
2022-10-05T12:24:50.409Z,19.0
2022-10-05T12:26:50.579Z,19.0
2022-10-05T12:28:50.629Z,19.0
2022-10-05T12:30:50.460Z,19.1
2022-10-05T12:32:50.392Z,19.1
2022-10-05T12:34:49.982Z,19.1
2022-10-05T12:37:05.769Z,19.2
2022-10-05T12:38:50.421Z,19.2
2022-10-05T12:40:50.191Z,19.3
2022-10-05T12:42:50.145Z,19.3
2022-10-05T12:44:50.002Z,19.3
2022-10-05T12:46:50.459Z,19.4
2022-10-05T12:48:50.264Z,19.4
2022-10-05T12:50:50.369Z,19.4
2022-10-05T12:52:50.265Z,19.5
2022-10-05T12:54:50.533Z,19.5
2022-10-05T12:56:50.679Z,19.5
2022-10-05T12:58:50.827Z,19.5
2022-10-05T13:00:51.007Z,19.6
2022-10-05T13:02:50.218Z,19.6
2022-10-05T13:04:49.973Z,19.6
2022-10-05T13:06:50.113Z,19.6
2022-10-05T13:08:50.148Z,19.6
2022-10-05T13:10:49.981Z,19.8
2022-10-05T13:12:50.061Z,19.8
2022-10-05T13:14:50.893Z,19.8
2022-10-05T13:16:55.827Z,19.8
2022-10-05T13:18:50.050Z,19.8
2022-10-05T13:20:50.267Z,19.8
2022-10-05T13:22:50.313Z,19.8
2022-10-05T13:24:50.132Z,19.9
2022-10-05T13:26:50.469Z,19.9
2022-10-05T13:28:50.395Z,20.0
2022-10-05T13:30:50.568Z,20.0
2022-10-05T13:32:50.388Z,20.0
2022-10-05T13:34:50.844Z,20.0
2022-10-05T13:36:50.138Z,20.1
2022-10-05T13:38:50.142Z,20.1
2022-10-05T13:40:49.994Z,20.1
2022-10-05T13:42:50.012Z,20.1
2022-10-05T13:44:50.140Z,20.1
2022-10-05T13:46:50.560Z,20.2
2022-10-05T13:48:50.915Z,20.2
2022-10-05T13:50:50.758Z,20.2
2022-10-05T13:52:50.764Z,20.2
2022-10-05T13:54:50.485Z,20.2
2022-10-05T13:56:50.766Z,20.2
2022-10-05T13:58:50.717Z,20.2
2022-10-05T14:00:50.677Z,20.2
2022-10-05T14:02:50.818Z,20.2
2022-10-05T14:04:50.502Z,20.3
2022-10-05T14:06:50.925Z,20.2
2022-10-05T14:08:50.803Z,20.3
2022-10-05T14:10:49.937Z,20.3
2022-10-05T14:12:50.856Z,20.2
2022-10-05T14:14:50.826Z,20.3
2022-10-05T14:16:50.702Z,20.3
2022-10-05T14:18:50.886Z,20.2
2022-10-05T14:20:49.942Z,20.2
2022-10-05T14:22:50.476Z,20.2
2022-10-05T14:24:50.840Z,20.3
2022-10-05T14:26:50.177Z,20.2
2022-10-05T14:28:50.388Z,20.2
2022-10-05T14:30:59.623Z,20.2
2022-10-05T14:32:50.686Z,20.2
2022-10-05T14:34:50.126Z,20.3
2022-10-05T14:36:50.401Z,20.3
2022-10-05T14:38:50.507Z,20.3
2022-10-05T14:40:50.384Z,20.3
2022-10-05T14:42:50.260Z,20.3
2022-10-05T14:44:50.459Z,20.4
2022-10-05T14:46:50.878Z,20.4
2022-10-05T14:48:50.904Z,20.4
2022-10-05T14:50:50.879Z,20.4
2022-10-05T14:52:52.349Z,20.4
2022-10-05T14:54:50.387Z,20.4
2022-10-05T14:56:50.866Z,20.5
2022-10-05T14:58:50.739Z,20.5
2022-10-05T15:00:51.155Z,20.5
2022-10-05T15:02:50.115Z,20.5
2022-10-05T15:04:50.033Z,20.5
2022-10-05T15:07:03.889Z,20.5
2022-10-05T15:08:50.615Z,20.6
2022-10-05T15:10:50.696Z,20.5
2022-10-05T15:12:50.717Z,20.5
2022-10-05T15:14:50.722Z,20.5
2022-10-05T15:16:50.506Z,20.5
2022-10-05T15:18:50.391Z,20.5
2022-10-05T15:20:50.529Z,20.5
2022-10-05T15:22:50.587Z,20.5
2022-10-05T15:24:50.459Z,20.5
2022-10-05T15:26:50.760Z,20.5
2022-10-05T15:28:50.781Z,20.4
2022-10-05T15:30:50.813Z,20.4
2022-10-05T15:32:50.079Z,20.4
2022-10-05T15:34:51.011Z,20.4
2022-10-05T15:36:50.360Z,20.3
2022-10-05T15:38:50.448Z,20.3
2022-10-05T15:40:50.471Z,20.2
2022-10-05T15:42:50.624Z,20.2
2022-10-05T15:44:50.570Z,20.2
2022-10-05T15:46:49.917Z,20.1
2022-10-05T15:48:50.869Z,20.0
2022-10-05T15:50:50.766Z,20.0
2022-10-05T15:52:50.887Z,19.9
2022-10-05T15:54:50.765Z,19.9
2022-10-05T15:56:50.286Z,19.9
2022-10-05T15:58:50.021Z,19.8
2022-10-05T16:00:51.274Z,19.7
2022-10-05T16:02:50.671Z,19.7
2022-10-05T16:04:50.293Z,19.6
2022-10-05T16:06:50.636Z,19.5
2022-10-05T16:08:50.426Z,19.4
2022-10-05T16:10:50.351Z,19.4
2022-10-05T16:12:50.202Z,19.4
2022-10-05T16:14:50.255Z,19.2
2022-10-05T16:16:50.939Z,19.2
2022-10-05T16:18:50.167Z,19.0
2022-10-05T16:20:50.153Z,19.0
2022-10-05T16:22:50.174Z,19.0
2022-10-05T16:24:50.193Z,18.9
2022-10-05T16:26:50.347Z,18.8
2022-10-05T16:28:50.528Z,18.6
2022-10-05T16:30:50.980Z,18.6
2022-10-05T16:32:50.000Z,18.6
2022-10-05T16:34:50.389Z,18.4
2022-10-05T16:36:50.637Z,18.3
2022-10-05T16:38:50.763Z,18.3
2022-10-05T16:40:50.889Z,18.2
2022-10-05T16:42:50.845Z,18.1
2022-10-05T16:44:50.683Z,18.0
2022-10-05T16:46:50.445Z,17.9
2022-10-05T16:48:50.538Z,17.9
2022-10-05T16:50:50.420Z,17.8
2022-10-05T16:52:50.781Z,17.7
2022-10-05T16:54:50.586Z,17.6
2022-10-05T16:56:50.816Z,17.5
2022-10-05T16:58:50.790Z,17.5
2022-10-05T17:00:50.960Z,17.4
2022-10-05T17:02:50.450Z,17.3
2022-10-05T17:04:50.026Z,17.2
2022-10-05T17:06:50.611Z,17.2
2022-10-05T17:08:50.391Z,17.0
2022-10-05T17:10:50.366Z,17.0
2022-10-05T17:12:50.308Z,16.9
2022-10-05T17:14:50.383Z,16.8
2022-10-05T17:16:50.655Z,16.7
2022-10-05T17:18:50.473Z,16.7
2022-10-05T17:20:50.588Z,16.6
2022-10-05T17:22:50.315Z,16.4
2022-10-05T17:24:50.508Z,16.4
2022-10-05T17:26:50.569Z,16.2
2022-10-05T17:28:50.768Z,16.2
2022-10-05T17:30:50.837Z,16.2
2022-10-05T17:32:50.836Z,16.1
2022-10-05T17:34:50.521Z,15.9
2022-10-05T17:36:50.247Z,15.9
2022-10-05T17:38:50.131Z,15.8
2022-10-05T17:40:50.089Z,15.8
2022-10-05T17:42:49.947Z,15.6
2022-10-05T17:44:50.825Z,15.5
2022-10-05T17:46:50.267Z,15.5
2022-10-05T17:48:50.368Z,15.4
2022-10-05T17:50:50.160Z,15.4
2022-10-05T17:52:50.254Z,15.2
2022-10-05T17:54:50.202Z,15.2
2022-10-05T17:56:50.712Z,15.2
2022-10-05T17:58:50.710Z,15.1
2022-10-05T18:00:50.700Z,15.0
2022-10-05T18:02:51.092Z,15.0
2022-10-05T18:04:50.632Z,15.0
2022-10-05T18:06:49.927Z,14.9
2022-10-05T18:08:50.761Z,14.8
2022-10-05T18:10:50.944Z,14.7
2022-10-05T18:12:50.892Z,14.6
2022-10-05T18:14:50.985Z,14.6
2022-10-05T18:16:50.213Z,14.6
2022-10-05T18:18:49.930Z,14.5
2022-10-05T18:20:49.937Z,14.4
2022-10-05T18:22:50.792Z,14.4
2022-10-05T18:24:50.786Z,14.4
2022-10-05T18:26:50.847Z,14.4
2022-10-05T18:28:51.133Z,14.3
2022-10-05T18:30:50.270Z,14.2
2022-10-05T18:32:50.304Z,14.2
2022-10-05T18:34:50.771Z,14.2
2022-10-05T18:36:50.149Z,14.2
2022-10-05T18:38:50.102Z,14.1
2022-10-05T18:40:50.905Z,14.1
2022-10-05T18:42:49.926Z,14.1
2022-10-05T18:44:50.798Z,14.0
2022-10-05T18:46:50.589Z,14.0
2022-10-05T18:48:50.613Z,14.0
2022-10-05T18:50:50.570Z,14.0
2022-10-05T18:52:50.660Z,13.9
2022-10-05T18:54:50.753Z,13.9
2022-10-05T18:56:50.207Z,13.9
2022-10-05T18:58:57.384Z,13.8
2022-10-05T19:00:50.505Z,13.8
2022-10-05T19:02:50.703Z,13.8
2022-10-05T19:04:50.127Z,13.7
2022-10-05T19:06:50.478Z,13.7
2022-10-05T19:08:50.459Z,13.6
2022-10-05T19:10:50.752Z,13.6
2022-10-05T19:12:50.333Z,13.6
2022-10-05T19:14:50.463Z,13.5
2022-10-05T19:16:50.409Z,13.5
2022-10-05T19:18:50.776Z,13.4
2022-10-05T19:20:50.750Z,13.4
2022-10-05T19:22:50.382Z,13.4
2022-10-05T19:24:50.342Z,13.3
2022-10-05T19:26:50.863Z,13.3
2022-10-05T19:28:51.075Z,13.3
2022-10-05T19:30:50.466Z,13.2
2022-10-05T19:32:50.629Z,13.2
2022-10-05T19:34:50.284Z,13.2
2022-10-05T19:36:50.591Z,13.1
2022-10-05T19:38:50.700Z,13.1
2022-10-05T19:40:50.611Z,13.1
2022-10-05T19:42:50.681Z,13.0
2022-10-05T19:44:50.603Z,13.0
2022-10-05T19:46:50.999Z,13.0
2022-10-05T19:48:50.293Z,12.9
2022-10-05T19:50:50.370Z,12.9
2022-10-05T19:52:50.713Z,12.9
2022-10-05T19:54:50.652Z,12.8
2022-10-05T19:56:50.104Z,12.7
2022-10-05T19:58:50.765Z,12.7
2022-10-05T20:00:50.736Z,12.7
2022-10-05T20:02:50.697Z,12.6
2022-10-05T20:04:50.293Z,12.6
2022-10-05T20:06:50.584Z,12.6
2022-10-05T20:08:50.582Z,12.5
2022-10-05T20:10:50.673Z,12.5
2022-10-05T20:12:50.703Z,12.4
2022-10-05T20:14:50.655Z,12.4
2022-10-05T20:16:49.996Z,12.4
2022-10-05T20:18:50.164Z,12.4
2022-10-05T20:20:50.021Z,12.3
2022-10-05T20:22:49.968Z,12.3
2022-10-05T20:24:50.783Z,12.3
2022-10-05T20:26:50.217Z,12.3
2022-10-05T20:28:50.494Z,12.2
2022-10-05T20:30:50.665Z,12.2
2022-10-05T20:32:50.585Z,12.2
2022-10-05T20:34:50.854Z,12.2
2022-10-05T20:36:50.051Z,12.2
2022-10-05T20:38:49.970Z,12.2
2022-10-05T20:40:50.858Z,12.1
2022-10-05T20:42:50.774Z,12.1
2022-10-05T20:44:57.438Z,12.0
2022-10-05T20:46:51.070Z,12.0
2022-10-05T20:48:50.261Z,12.0
2022-10-05T20:50:50.115Z,11.9
2022-10-05T20:52:50.159Z,11.9
2022-10-05T20:54:50.098Z,11.8
2022-10-05T20:56:50.359Z,11.8
2022-10-05T20:58:50.176Z,11.8
2022-10-05T21:00:50.577Z,11.8
2022-10-05T21:02:50.700Z,11.7
2022-10-05T21:04:50.608Z,11.7
2022-10-05T21:06:49.979Z,11.7
2022-10-05T21:08:50.675Z,11.6
2022-10-05T21:10:50.571Z,11.6
2022-10-05T21:12:50.587Z,11.6
2022-10-05T21:14:50.729Z,11.6
2022-10-05T21:16:50.910Z,11.6
2022-10-05T21:18:50.004Z,11.5
2022-10-05T21:20:50.819Z,11.5
2022-10-05T21:22:50.741Z,11.5
2022-10-05T21:24:50.564Z,11.5
2022-10-05T21:26:50.939Z,11.4
2022-10-05T21:28:51.040Z,11.4
2022-10-05T21:30:50.440Z,11.4
2022-10-05T21:32:50.549Z,11.4
2022-10-05T21:34:50.905Z,11.4
2022-10-05T21:36:50.172Z,11.3
2022-10-05T21:38:50.159Z,11.3
2022-10-05T21:40:50.015Z,11.2
2022-10-05T21:42:50.875Z,11.2
2022-10-05T21:44:50.897Z,11.2
2022-10-05T21:46:50.143Z,11.2
2022-10-05T21:48:50.178Z,11.1
2022-10-05T21:50:50.008Z,11.1
2022-10-05T21:52:50.101Z,11.1
2022-10-05T21:54:50.897Z,11.0
2022-10-05T21:56:50.257Z,11.0
2022-10-05T21:58:50.167Z,11.0
2022-10-05T22:00:50.428Z,11.0
2022-10-05T22:02:50.386Z,11.0
2022-10-05T22:04:49.945Z,10.9
2022-10-05T22:06:49.997Z,10.9
2022-10-05T22:08:50.048Z,10.9
2022-10-05T22:10:50.049Z,10.8
2022-10-05T22:12:50.161Z,10.8
2022-10-05T22:14:50.243Z,10.8
2022-10-05T22:16:50.877Z,10.8
2022-10-05T22:18:49.975Z,10.8
2022-10-05T22:20:50.937Z,10.8
2022-10-05T22:22:50.837Z,10.7
2022-10-05T22:24:50.756Z,10.8
2022-10-05T22:26:50.008Z,10.8
2022-10-05T22:28:50.869Z,10.8
2022-10-05T22:30:50.896Z,10.8
2022-10-05T22:32:50.748Z,10.8
2022-10-05T22:34:50.261Z,10.8
2022-10-05T22:36:50.573Z,10.8
2022-10-05T22:38:50.617Z,10.8
2022-10-05T22:40:50.532Z,10.8
2022-10-05T22:42:50.600Z,10.8
2022-10-05T22:44:50.602Z,10.8
2022-10-05T22:46:49.939Z,10.8
2022-10-05T22:48:49.993Z,10.7
2022-10-05T22:50:49.960Z,10.7
2022-10-05T22:52:50.005Z,10.7
2022-10-05T22:54:50.731Z,10.7
2022-10-05T22:56:49.933Z,10.7
2022-10-05T22:58:49.962Z,10.6
2022-10-05T23:00:59.436Z,10.6
2022-10-05T23:02:50.804Z,10.6
2022-10-05T23:04:50.325Z,10.5
2022-10-05T23:06:50.693Z,10.5
2022-10-05T23:08:50.674Z,10.5
2022-10-05T23:10:50.514Z,10.5
2022-10-05T23:12:50.435Z,10.4
2022-10-05T23:14:50.329Z,10.4
2022-10-05T23:16:50.885Z,10.4
2022-10-05T23:18:50.104Z,10.3
2022-10-05T23:20:50.121Z,10.3
2022-10-05T23:22:50.245Z,10.2
2022-10-05T23:24:50.068Z,10.2
2022-10-05T23:26:50.312Z,10.2
2022-10-05T23:28:50.019Z,10.2
2022-10-05T23:30:50.462Z,10.2
2022-10-05T23:32:50.397Z,10.1
2022-10-05T23:34:50.819Z,10.1
2022-10-05T23:36:50.134Z,10.1
2022-10-05T23:38:50.340Z,10.1
2022-10-05T23:40:50.301Z,10.1
2022-10-05T23:42:50.153Z,10.1
2022-10-05T23:44:49.916Z,10.1
2022-10-05T23:46:50.266Z,10.0
2022-10-05T23:48:50.237Z,10.0
2022-10-05T23:50:50.354Z,10.0
2022-10-05T23:52:50.249Z,10.0
2022-10-05T23:54:50.209Z,10.1
2022-10-05T23:56:50.697Z,10.1
2022-10-05T23:58:50.425Z,10.0
